Flight Track Log - Related Links

Times and Time Zones

All times are in EDT time to prevent confusion due to time zone crossing. See the N3333A flight status page for this flight to view local times or setup timezone preferences in your user account.


Time Position Orientation Groundspeed Altitude Reporting Facility
EDT Latitude Longitude Course Direction KTS MPH feet Rate Location/Type
Sun 09:04:09 AM 35.7972 -82.0033 179° South 144 166 6,200  Level Atlanta Center
Sun 09:05:09 AM 35.7681 -81.9964 169° South 114 131 6,700 500 Climbing Atlanta Center
Sun 09:06:09 AM 35.7325 -81.9972 181° South 114 131 7,200 550 Climbing Atlanta Center
Sun 09:07:09 AM 35.6992 -81.9931 174° South 125 144 7,800 350 Climbing Atlanta Center
Sun 09:08:00 AM 35.6645 -81.9909 179° South  Level FlightAware Approximate
Sun 09:08:09 AM 35.6636 -81.9939 181° South 125 144 7,900  Level Atlanta Center
Sun 09:09:09 AM 35.6178 -81.9900 176° South 148 170 7,900  Level Atlanta Center
Sun 09:10:09 AM 35.5678 -81.9911 181° South 160 184 7,900  Level Atlanta Center
Sun 09:11:09 AM 35.5239 -81.9897 179° South 166 191 7,900  Level Atlanta Center
Sun 09:12:09 AM 35.4758 -81.9908 181° South 166 191 7,900  Level Atlanta Center
Sun 09:13:09 AM 35.4300 -81.9894 179° South 166 191 7,900  Level Atlanta Center
Sun 09:14:09 AM 35.3861 -81.9881 179° South 166 191 7,900  Level Atlanta Center
Sun 09:15:09 AM 35.3403 -81.9867 179° South 161 185 7,900  Level Atlanta Center
Sun 09:16:09 AM 35.2942 -81.9878 181° South 161 185 7,900  Level Atlanta Center
Sun 09:17:09 AM 35.2483 -81.9839 176° South 166 191 7,900  Level Atlanta Center
Sun 09:18:09 AM 35.2025 -81.9850 181° South 166 191 7,900  Level Atlanta Center
Sun 09:19:09 AM 35.1564 -81.9836 179° South 166 191 7,900  Level Atlanta Center
Sun 09:20:09 AM 35.1086 -81.9847 181° South 166 191 7,900  Level Atlanta Center
Sun 09:21:09 AM 35.0667 -81.9833 178° South 166 191 7,900 44 Level Atlanta Center
Sun 09:23:00 AM 34.9800 -81.9819 179° South  Level FlightAware Approximate
Sun 09:30:00 AM 34.6523 -81.9764 179° South  Level FlightAware Approximate
Sun 09:31:00 AM 34.6055 -81.9756 179° South  Level FlightAware Approximate
Sun 09:32:00 AM 34.5587 -81.9748 179° South  Level FlightAware Approximate
Sun 09:33:00 AM 34.5118 -81.9740 179° South  Level FlightAware Approximate
Sun 09:34:00 AM 34.4650 -81.9733 179° South  Level FlightAware Approximate
Sun 09:35:00 AM 34.4182 -81.9725 179° South  Level FlightAware Approximate
Sun 09:36:00 AM 34.3714 -81.9717 179° South  Level FlightAware Approximate
Sun 09:37:00 AM 34.3246 -81.9709 179° South  Level FlightAware Approximate
Sun 09:38:00 AM 34.2777 -81.9702 179° South  Level FlightAware Approximate
Sun 09:39:00 AM 34.2309 -81.9694 179° South  Level FlightAware Approximate
Sun 09:40:00 AM 34.1841 -81.9686 179° South  Level FlightAware Approximate
Sun 09:41:00 AM 34.1373 -81.9678 179° South  Level FlightAware Approximate
Sun 09:42:00 AM 34.0905 -81.9671 179° South  Level FlightAware Approximate
Sun 09:43:00 AM 34.0436 -81.9663 179° South  Level FlightAware Approximate
Sun 09:44:00 AM 33.9984 -81.9650 179° South  Level FlightAware Approximate
Sun 09:45:00 AM 33.9532 -81.9637 179° South  Level FlightAware Approximate
Sun 09:46:00 AM 33.9080 -81.9624 179° South  Level FlightAware Approximate
Sun 09:47:00 AM 33.8628 -81.9611 179° South  Level FlightAware Approximate
Sun 09:48:00 AM 33.8176 -81.9597 179° South  Level FlightAware Approximate
Sun 09:49:00 AM 33.7724 -81.9584 179° South  Level FlightAware Approximate
Sun 09:50:00 AM 33.7271 -81.9571 179° South  Level FlightAware Approximate
Sun 09:51:00 AM 33.6819 -81.9558 179° South  Level FlightAware Approximate
Sun 09:52:00 AM 33.6367 -81.9545 179° South  Level FlightAware Approximate
Sun 09:53:00 AM 33.5915 -81.9531 179° South  Level FlightAware Approximate
Sun 09:54:00 AM 33.5463 -81.9518 179° South  Level FlightAware Approximate
Sun 09:55:00 AM 33.5011 -81.9505 179° South  Level FlightAware Approximate
Sun 09:56:00 AM 33.4559 -81.9500 180° South  Level FlightAware Approximate
Sun 09:57:00 AM 33.4107 -81.9500 180° South  Level FlightAware Approximate
Sun 09:58:00 AM 33.3655 -81.9500 180° South  Level FlightAware Approximate
Sun 09:59:00 AM 33.3203 -81.9500 180° South  Level FlightAware Approximate
Sun 10:00:00 AM 33.2751 -81.9500 180° South  Level FlightAware Approximate
Sun 10:01:00 AM 33.2298 -81.9500 180° South  Level FlightAware Approximate
Sun 10:02:00 AM 33.1846 -81.9500 180° South  Level FlightAware Approximate
Sun 10:03:00 AM 33.1394 -81.9500 180° South  Level FlightAware Approximate
Sun 10:04:00 AM 33.0942 -81.9500 180° South  Level FlightAware Approximate
Sun 10:05:00 AM 33.0490 -81.9500 180° South  Level FlightAware Approximate
Sun 10:06:00 AM 33.0037 -81.9500 180° South  Level FlightAware Approximate
Sun 10:06:07 AM 33.0983 -81.9628 178° South 161 185 9,900  Level Jacksonville Center
Sun 10:07:00 AM 32.9585 -81.9500 180° South  Level FlightAware Approximate
Sun 10:07:07 AM 33.0544 -81.9633 181° South 161 185 9,900  Level Jacksonville Center
Sun 10:08:00 AM 32.9133 -81.9500 180° South  Level FlightAware Approximate
Sun 10:08:07 AM 33.0086 -81.9611 178° South 161 185 9,900  Level Jacksonville Center
Sun 10:09:00 AM 32.8681 -81.9493 178° South  Level FlightAware Approximate
Sun 10:09:07 AM 32.9647 -81.9592 178° South 161 185 9,900  Level Jacksonville Center
Sun 10:10:00 AM 32.8229 -81.9471 178° South  Level FlightAware Approximate
Sun 10:10:07 AM 32.9189 -81.9597 181° South 161 185 9,900  Level Jacksonville Center
Sun 10:11:00 AM 32.7777 -81.9449 178° South  Level FlightAware Approximate
Sun 10:11:07 AM 32.8750 -81.9625 183° South 161 185 9,900  Level Jacksonville Center
Sun 10:12:07 AM 32.8292 -81.9606 178° South 161 185 9,900  Level Jacksonville Center
Sun 10:13:07 AM 32.7853 -81.9561 175° South 161 185 9,900  Level Jacksonville Center
Sun 10:14:07 AM 32.7372 -81.9567 181° South 161 185 9,900  Level Jacksonville Center
Sun 10:15:07 AM 32.6872 -81.9619 185° South 161 185 9,900  Level Jacksonville Center
Sun 10:16:07 AM 32.6433 -81.9625 181° South 156 180 9,900  Level Jacksonville Center
Sun 10:17:07 AM 32.5972 -81.9581 175° South 156 180 9,900  Level Jacksonville Center
Sun 10:18:07 AM 32.5556 -81.9583 180° South 162 186 9,900  Level Jacksonville Center
Sun 10:19:07 AM 32.5097 -81.9564 178° South 162 186 9,900  Level Jacksonville Center
Sun 10:20:07 AM 32.4617 -81.9569 181° South 157 181 9,900  Level Jacksonville Center
Sun 10:21:07 AM 32.4156 -81.9550 178° South 162 186 9,900  Level Jacksonville Center
Sun 10:22:07 AM 32.3761 -81.9553 180° South 162 186 9,900  Level Jacksonville Center
Sun 10:23:07 AM 32.3300 -81.9533 178° South 157 181 9,900  Level Jacksonville Center
Sun 10:24:07 AM 32.2819 -81.9514 178° South 162 186 9,900  Level Jacksonville Center
Sun 10:25:07 AM 32.2361 -81.9519 181° South 157 181 9,900  Level Jacksonville Center
Sun 10:26:07 AM 32.1903 -81.9500 178° South 162 186 9,900 -50 Level Jacksonville Center
Sun 10:27:07 AM 32.1506 -81.9478 177° South 162 186 9,800 -50 Descending Jacksonville Center
Sun 10:28:07 AM 32.1067 -81.9458 178° South 162 186 9,800  Level Jacksonville Center
Sun 10:29:07 AM 32.0564 -81.9464 181° South 162 186 9,800  Level Jacksonville Center
Sun 10:30:07 AM 32.0128 -81.9469 181° South 162 186 9,800  Level Jacksonville Center
Sun 10:31:07 AM 31.9667 -81.9472 180° South 162 186 9,800  Level Jacksonville Center
Sun 10:32:07 AM 31.9250 -81.9453 178° South 162 186 9,800  Level Jacksonville Center
Sun 10:33:07 AM 31.8750 -81.9458 181° South 162 186 9,800  Level Jacksonville Center
Sun 10:34:07 AM 31.8311 -81.9439 178° South 162 186 9,800  Level Jacksonville Center
Sun 10:35:07 AM 31.7850 -81.9442 180° South 162 186 9,800  Level Jacksonville Center
Sun 10:36:07 AM 31.7453 -81.9422 178° South 157 181 9,800  Level Jacksonville Center
Sun 10:37:07 AM 31.6994 -81.9428 181° South 163 188 9,800  Level Jacksonville Center
Sun 10:38:07 AM 31.6494 -81.9408 178° South 163 188 9,800  Level Jacksonville Center
Sun 10:39:07 AM 31.6033 -81.9411 180° South 163 188 9,800  Level Jacksonville Center
Sun 10:40:07 AM 31.5617 -81.9417 181° South 163 188 9,800  Level Jacksonville Center
Sun 10:41:07 AM 31.5178 -81.9422 181° South 163 188 9,800  Level Jacksonville Center
Sun 10:42:07 AM 31.4678 -81.9403 178° South 163 188 9,800  Level Jacksonville Center
Sun 10:43:07 AM 31.4197 -81.9406 180° South 158 182 9,800  Level Jacksonville Center
Sun 10:44:07 AM 31.3758 -81.9386 178° South 163 188 9,800  Level Jacksonville Center
Sun 10:45:07 AM 31.3342 -81.9417 184° South 163 188 9,800  Level Jacksonville Center
Sun 10:46:07 AM 31.2861 -81.9397 178° South 163 188 9,800  Level Jacksonville Center
Sun 10:47:07 AM 31.2400 -81.9375 178° South 163 188 9,800  Level Jacksonville Center
Sun 10:47:37 AM 31.2172 -81.9403 186° South 163 188 9,800  Level Jacksonville Center
Sun 10:48:07 AM 31.1942 -81.9406 181° South 158 182 9,800  Level Jacksonville Center
Sun 10:48:38 AM 31.1711 -81.9408 181° South 165 190 9,800  Level Jacksonville Center
Sun 10:49:07 AM 31.1525 -81.9386 174° South 158 182 9,800  Level Jacksonville Center
Sun 10:49:39 AM 31.1192 -81.9436 187° South 165 190 9,800  Level Jacksonville Center
Sun 10:50:07 AM 31.1064 -81.9414 172° South 158 182 9,800  Level Jacksonville Center
Sun 10:50:46 AM 31.0711 -81.9417 180° South 164 189 9,800  Level Jacksonville Center
Sun 10:51:07 AM 31.0606 -81.9419 181° South 158 182 9,800  Level Jacksonville Center
Sun 10:51:47 AM 31.0272 -81.9422 180° South 161 185 9,800  Level Jacksonville Center
Sun 10:52:07 AM 31.0147 -81.9422 180° South 158 182 9,800  Level Jacksonville Center
Sun 10:52:54 AM 30.9750 -81.9403 178° South 162 186 9,800  Level Jacksonville Center
Sun 10:53:07 AM 30.9708 -81.9403 180° South 158 182 9,800  Level Jacksonville Center
Sun 10:53:43 AM 30.9372 -81.9406 180° South 162 186 9,800  Level Jacksonville Center
Sun 10:54:07 AM 30.9247 -81.9408 181° South 158 182 9,800  Level Jacksonville Center
Sun 10:54:38 AM 30.8956 -81.9411 180° South 162 186 9,800  Level Jacksonville Center
Sun 10:55:07 AM 30.8789 -81.9389 173° South 158 182 9,800  Level Jacksonville Center
Sun 10:55:51 AM 30.8433 -81.9417 184° South 164 189 9,800  Level Jacksonville Center
Sun 10:56:07 AM 30.8350 -81.9417 180° South 158 182 9,800  Level Jacksonville Center
Sun 10:56:46 AM 30.8017 -81.9419 180° South 166 191 9,800  Level Jacksonville Center
Sun 10:57:07 AM 30.7911 -81.9397 170° South 158 182 9,800  Level Jacksonville Center
Sun 10:57:47 AM 30.7517 -81.9450 187° South 162 186 9,800  Level Jacksonville Center
Sun 10:58:49 AM 30.7097 -81.9528 189° South 161 185 9,800  Level Jacksonville Center
Sun 10:59:43 AM 30.6681 -81.9556 183° South 161 185 9,800  Level Jacksonville Center
Sun 11:00:44 AM 30.6222 -81.9608 186° South 163 188 9,800  Level Jacksonville Center
Sun 11:01:51 AM 30.5742 -81.9636 183° South 162 186 9,800  Level Jacksonville Center
Sun 11:02:46 AM 30.5325 -81.9689 186° South 162 186 9,800  Level Jacksonville Center
Sun 11:03:53 AM 30.4803 -81.9742 185° South 161 185 9,800  Level Jacksonville Center
Sun 11:05:00 AM 30.4303 -81.9769 183° South 161 185 9,800  Level Jacksonville Center
Sun 11:06:01 AM 30.3844 -81.9822 186° South 163 188 9,800  Level Jacksonville Center
Sun 11:06:56 AM 30.3428 -81.9875 186° South 162 186 9,800  Level Jacksonville Center
Sun 11:07:51 AM 30.3031 -81.9903 183° South 159 183 9,800  Level Jacksonville Center
Sun 11:08:46 AM 30.2633 -81.9931 183° South 160 184 9,800 -31 Level Jacksonville Center
Sun 11:10:00 AM 30.2080 -81.9890 176° South  Level FlightAware Approximate
Sun 11:11:06 AM 30.1592 -82.0061 176° South 167 192 9,700  Level Jacksonville Center
Sun 11:12:07 AM 30.1089 -82.0067 181° South 169 194 9,300 -344 Descending Jacksonville Center
Sun 11:13:08 AM 30.0631 -82.0094 183° South 174 200 9,000 -197 Descending Jacksonville Center
Sun 11:14:09 AM 30.0131 -82.0147 185° South 166 191 8,900 -49 Descending Jacksonville Center
Sun 11:15:10 AM 29.9669 -82.0200 186° South 164 189 8,900  Level Jacksonville Center
Sun 11:16:11 AM 29.9233 -82.0275 188° South 163 188 8,900  Level Jacksonville Center
Sun 11:17:12 AM 29.8753 -82.0278 180° South 164 189 8,900  Level Jacksonville Center
Sun 11:17:55 AM 29.8439 -82.0331 188° South 163 188 8,900  Level Jacksonville Center
Sun 11:19:01 AM 29.7939 -82.0358 183° South 163 188 8,900  Level Jacksonville Center
Sun 11:20:02 AM 29.7458 -82.0408 185° South 163 188 8,900  Level Jacksonville Center
Sun 11:21:03 AM 29.7019 -82.0436 183° South 161 185 8,900  Level Jacksonville Center
Sun 11:22:10 AM 29.6542 -82.0467 183° South 159 183 8,900  Level Jacksonville Center
Sun 11:23:11 AM 29.6103 -82.0517 186° South 161 185 8,900  Level Jacksonville Center
Sun 11:24:06 AM 29.5664 -82.0569 186° South 161 185 8,900  Level Jacksonville Center
Sun 11:25:07 AM 29.5206 -82.0619 185° South 159 183 8,900  Level Jacksonville Center
Sun 11:26:08 AM 29.4767 -82.0600 178° South 160 184 8,900  Level Jacksonville Center
Sun 11:27:09 AM 29.4308 -82.0675 188° South 161 185 8,900  Level Jacksonville Center
Sun 11:28:11 AM 29.3869 -82.0728 186° South 161 185 8,900  Level Jacksonville Center
Sun 11:29:18 AM 29.3369 -82.0756 183° South 161 185 8,900  Level Jacksonville Center
Sun 11:30:18 AM 29.2911 -82.0806 185° South 161 185 8,900  Level Jacksonville Center
Sun 11:31:20 AM 29.2453 -82.0858 186° South 160 184 8,900  Level Jacksonville Center
Sun 11:32:26 AM 29.1972 -82.0908 185° South 159 183 8,900  Level Jacksonville Center
Sun 11:33:27 AM 29.1492 -82.0936 183° South 159 183 8,900  Level Jacksonville Center
Sun 11:34:22 AM 29.1075 -82.0964 183° South 160 184 8,900  Level Jacksonville Center
Sun 11:35:23 AM 29.0636 -82.1014 186° South 160 184 8,900  Level Jacksonville Center
Sun 11:36:25 AM 29.0200 -82.1067 186° South 160 184 8,900  Level Jacksonville Center
Sun 11:37:32 AM 28.9678 -82.1117 185° South 161 185 8,900  Level Jacksonville Center
Sun 11:38:33 AM 28.9239 -82.1169 186° South 162 186 8,900  Level Jacksonville Center
Sun 11:39:40 AM 28.8739 -82.1219 185° South 162 186 8,900  Level Jacksonville Center
Sun 11:40:29 AM 28.8364 -82.1247 184° South 162 186 8,900  Level Jacksonville Center
Sun 11:42:01 AM 28.7667 -82.1333 186° South 161 185 8,900  Level Tampa TRACON
Sun 11:43:01 AM 28.7167 -82.1333 180° South 162 186 8,900  Level Tampa TRACON
Sun 11:44:01 AM 28.6833 -82.1333 180° South 161 185 8,900  Level Tampa TRACON
Sun 11:44:55 AM 28.6333 -82.1333 180° South 164 189 8,900  Level Tampa TRACON
Sun 11:45:55 AM 28.6000 -82.1333 180° South 161 185 8,900  Level Tampa TRACON
Sun 11:47:01 AM 28.5500 -82.1167 164° South 163 188 8,900 -136 Level Tampa TRACON
Sun 11:48:07 AM 28.5000 -82.1000 164° South 162 186 8,600 -333 Descending Tampa TRACON
Sun 11:49:07 AM 28.4500 -82.1000 180° South 165 190 8,200 -300 Descending Tampa TRACON
Sun 11:50:07 AM 28.4000 -82.0833 164° South 166 191 8,000 -238 Descending Tampa TRACON
Sun 11:51:13 AM 28.3500 -82.0833 180° South 163 188 7,700 -300 Descending Tampa TRACON
Sun 11:52:07 AM 28.3167 -82.0833 180° South 163 188 7,400 -347 Descending Tampa TRACON
Sun 11:53:14 AM 28.2667 -82.0667 164° South 162 186 7,000 -263 Descending Tampa TRACON
Sun 11:54:01 AM 28.2333 -82.0667 180° South 167 192 6,900 -202 Descending Tampa TRACON
Sun 11:55:13 AM 28.1833 -82.0500 164° South 153 176 6,600 -409 Descending Tampa TRACON
Sun 11:56:13 AM 28.1333 -82.0500 180° South 175 201 6,000 -500 Descending Tampa TRACON
Sun 11:57:13 AM 28.0833 -82.0333 164° South 153 176 5,600 -417 Descending Tampa TRACON
Sun 11:58:08 AM 28.0500 -82.0333 180° South 150 173 5,200 -470 Descending Tampa TRACON
Sun 11:59:08 AM 28.0000 -82.0333 180° South 151 174 4,700 -476 Descending Tampa TRACON
Sun 12:00:14 PM 27.9667 -82.0167 156° South 150 173 4,200 -545 Descending Tampa TRACON
Sun 12:02:15 PM 27.8789 -81.9983 170° South 129 148 3,000 -595 Descending Miami Center

Login

Don't have an account? Register now (free) for customized features, flight alerts, and more!